메인 페이지
METAR-TAF:

METAR-TAF

공항 :

베이징, 중국

베이징 수도 국제공항

위도: 39-56N, 경도: 116-17E, 고도: 55m

현재 날씨관측

예보는 40분 전, 00:30시(UTC)에 발표되었습니다.
북북서4kt서북서풍과 북북동풍을 오가는
온도 -2°C
습도 69%
기압 1025 hPa
시정: 8000m

METAR: ZBAA 180030Z 34002MPS 300V020 8000 NSC M02/M07 Q1025 NOSIG

시각: 09:10 (01:10 UTC)

예보

예보는 3 시간 50분 전, 21:20시(UTC)에 발표되었습니다.
예보 대상 시간: 18일 00시부터 18일 24시까지 (UTC)
8kt
시정 10km 이상
1500m 미만 상공 구름 및 적란운 없음

TAF: ZBAA 172120Z 1800/1824 36004MPS CAVOK TX06/1807Z TNM07/21Z

4,000개 이상의 공항 관측 자료 및 예보 (METAR 및 TAF 보고).

지도상에서 검색 가능한 기상관측소가 노란 점과 빨간 점으로 표시되어 있습니다.

기상관측소 명을 보려면 표시 위로 마우스를 이동하세요.

날씨 관측과 예보를 보려면 클릭하세요.

지도 변경 : 확대하려면 엑스 표시가 있는 녹색 버튼, 축소하려면 빼기 표시가 있는 녹색 버튼, 다음 페이지의 지도를 보려면 녹색 화살표를 클릭하세요.


METAR-TAF: